createdAt,value
2023-02-11T00:01:20.808Z,99575.00
2023-02-11T00:03:47.951Z,99572.00
2023-02-11T00:06:15.306Z,99570.00
2023-02-11T00:08:42.982Z,99562.00
2023-02-11T00:11:15.150Z,99554.00
2023-02-11T00:13:43.562Z,99569.00
2023-02-11T00:16:15.490Z,99561.00
2023-02-11T00:18:42.782Z,99566.00
2023-02-11T00:21:16.294Z,99569.00
2023-02-11T00:23:44.339Z,99561.00
2023-02-11T00:26:16.536Z,99565.00
2023-02-11T00:28:44.679Z,99562.00
2023-02-11T00:31:13.388Z,99555.00
2023-02-11T00:33:40.766Z,99548.00
2023-02-11T00:36:16.717Z,99544.00
2023-02-11T00:38:45.404Z,99540.00
2023-02-11T00:41:13.713Z,99551.00
2023-02-11T00:43:41.591Z,99550.00
2023-02-11T00:46:09.464Z,99562.00
2023-02-11T00:48:36.812Z,99560.00
2023-02-11T00:51:04.548Z,99560.00
2023-02-11T00:53:32.836Z,99547.00
2023-02-11T00:56:01.238Z,99548.00
2023-02-11T00:58:30.567Z,99557.00
2023-02-11T01:00:58.195Z,99552.00
2023-02-11T01:03:25.859Z,99555.00
2023-02-11T01:05:53.496Z,99549.00
2023-02-11T01:08:20.956Z,99556.00
2023-02-11T01:11:07.648Z,99541.00
2023-02-11T01:13:37.337Z,99549.00
2023-02-11T01:16:07.878Z,99550.00
2023-02-11T01:18:35.433Z,99547.00
2023-02-11T01:21:02.516Z,99539.00
2023-02-11T01:23:29.599Z,99548.00
2023-02-11T01:25:57.502Z,99535.00
2023-02-11T01:28:27.453Z,99538.00
2023-02-11T01:30:54.791Z,99547.00
2023-02-11T01:33:23.489Z,99542.00
2023-02-11T01:35:51.160Z,99537.00
2023-02-11T01:38:24.659Z,99534.00
2023-02-11T01:40:55.807Z,99540.00
2023-02-11T01:43:24.786Z,99534.00
2023-02-11T01:45:59.320Z,99541.00
2023-02-11T01:48:36.066Z,99531.00
2023-02-11T01:51:21.967Z,99545.00
2023-02-11T01:54:08.722Z,99550.00
2023-02-11T01:56:59.068Z,99543.00
2023-02-11T01:59:41.601Z,99540.00
2023-02-11T02:02:13.731Z,99538.00
2023-02-11T02:04:53.670Z,99530.00
2023-02-11T02:07:35.077Z,99524.00
2023-02-11T02:10:10.249Z,99520.00
2023-02-11T02:12:37.636Z,99517.00
2023-02-11T02:15:29.458Z,99516.00
2023-02-11T02:18:31.085Z,99514.00
2023-02-11T02:21:10.430Z,99514.00
2023-02-11T02:24:10.692Z,99509.00
2023-02-11T02:26:53.505Z,99498.00
2023-02-11T02:30:05.179Z,99495.00
2023-02-11T02:32:52.691Z,99486.00
2023-02-11T02:35:40.906Z,99492.00
2023-02-11T02:38:32.791Z,99478.00
2023-02-11T02:41:12.317Z,99483.00
2023-02-11T02:43:46.652Z,99472.00
2023-02-11T02:46:26.086Z,99477.00
2023-02-11T02:48:54.924Z,99478.00
2023-02-11T02:51:27.653Z,99481.00
2023-02-11T02:54:44.779Z,99468.00
2023-02-11T02:58:00.156Z,99474.00
2023-02-11T03:00:50.628Z,99468.00
2023-02-11T03:03:40.833Z,99466.00
2023-02-11T03:06:32.582Z,99474.00
2023-02-11T03:09:55.195Z,99466.00
2023-02-11T03:12:23.728Z,99462.00
2023-02-11T03:14:52.813Z,99457.00
2023-02-11T03:17:21.611Z,99457.00
2023-02-11T03:19:51.001Z,99468.00
2023-02-11T03:22:27.585Z,99467.00
2023-02-11T03:24:56.768Z,99465.00
2023-02-11T03:27:49.520Z,99464.00
2023-02-11T03:30:24.984Z,99460.00
2023-02-11T03:33:09.100Z,99457.00
2023-02-11T03:35:43.165Z,99470.00
2023-02-11T03:38:26.322Z,99467.00
2023-02-11T03:40:55.478Z,99463.00
2023-02-11T03:43:45.156Z,99475.00
2023-02-11T03:46:14.124Z,99472.00
2023-02-11T03:48:46.026Z,99465.00
2023-02-11T03:51:14.532Z,99471.00
2023-02-11T03:53:45.340Z,99469.00
2023-02-11T03:56:20.670Z,99468.00
2023-02-11T03:58:49.216Z,99454.00
2023-02-11T04:01:16.771Z,99451.00
2023-02-11T04:03:44.013Z,99450.00
2023-02-11T04:06:11.261Z,99445.00
2023-02-11T04:08:38.510Z,99447.00
2023-02-11T04:11:05.543Z,99446.00
2023-02-11T04:13:32.842Z,99443.00
2023-02-11T04:15:59.925Z,99445.00
2023-02-11T04:18:27.037Z,99439.00
2023-02-11T04:20:54.071Z,99449.00
2023-02-11T04:23:21.208Z,99443.00
2023-02-11T04:25:51.467Z,99441.00
2023-02-11T04:28:18.762Z,99454.00
2023-02-11T04:30:45.818Z,99451.00
2023-02-11T04:33:13.093Z,99463.00
2023-02-11T04:35:40.304Z,99471.00
2023-02-11T04:38:07.329Z,99464.00
2023-02-11T04:40:34.445Z,99466.00
2023-02-11T04:43:01.488Z,99463.00
2023-02-11T04:45:28.665Z,99457.00
2023-02-11T04:47:55.755Z,99463.00
2023-02-11T04:50:22.822Z,99465.00
2023-02-11T04:52:49.844Z,99458.00
2023-02-11T04:55:17.118Z,99458.00
2023-02-11T04:57:44.144Z,99461.00
2023-02-11T05:00:12.230Z,99462.00
2023-02-11T05:02:39.419Z,99469.00
2023-02-11T05:05:06.668Z,99456.00
2023-02-11T05:07:34.105Z,99463.00
2023-02-11T05:10:01.272Z,99463.00
2023-02-11T05:12:28.362Z,99461.00
2023-02-11T05:14:55.392Z,99452.00
2023-02-11T05:17:22.475Z,99454.00
2023-02-11T05:19:51.929Z,99455.00
2023-02-11T05:22:19.808Z,99444.00
2023-02-11T05:24:47.063Z,99436.00
2023-02-11T05:27:14.189Z,99432.00
2023-02-11T05:29:41.250Z,99432.00
2023-02-11T05:32:09.135Z,99438.00
2023-02-11T05:34:36.854Z,99437.00
2023-02-11T05:37:05.548Z,99425.00
2023-02-11T05:39:32.590Z,99437.00
2023-02-11T05:42:01.659Z,99437.00
2023-02-11T05:44:28.800Z,99443.00
2023-02-11T05:46:55.958Z,99440.00
2023-02-11T05:49:23.082Z,99439.00
2023-02-11T05:51:50.120Z,99447.00
2023-02-11T05:54:17.466Z,99443.00
2023-02-11T05:56:45.672Z,99447.00
2023-02-11T05:59:15.004Z,99450.00
2023-02-11T06:01:42.586Z,99443.00
2023-02-11T06:04:09.796Z,99444.00
2023-02-11T06:06:37.240Z,99444.00
2023-02-11T06:09:04.826Z,99439.00
2023-02-11T06:11:31.901Z,99439.00
2023-02-11T06:13:59.017Z,99431.00
2023-02-11T06:16:26.127Z,99432.00
2023-02-11T06:18:53.178Z,99437.00
2023-02-11T06:21:20.309Z,99442.00
2023-02-11T06:23:47.550Z,99429.00
2023-02-11T06:26:22.040Z,99432.00
2023-02-11T06:28:49.598Z,99438.00
2023-02-11T06:31:17.254Z,99424.00
2023-02-11T06:33:44.644Z,99416.00
2023-02-11T06:36:21.556Z,99429.00
2023-02-11T06:38:49.865Z,99438.00
2023-02-11T06:41:21.825Z,99425.00
2023-02-11T06:43:50.279Z,99427.00
2023-02-11T06:46:17.430Z,99418.00
2023-02-11T06:48:45.082Z,99431.00
2023-02-11T06:51:14.251Z,99441.00
2023-02-11T06:53:46.880Z,99454.00
2023-02-11T06:56:21.353Z,99449.00
2023-02-11T06:58:53.576Z,99464.00
2023-02-11T07:01:20.996Z,99455.00
2023-02-11T07:03:49.565Z,99444.00
2023-02-11T07:06:20.690Z,99442.00
2023-02-11T07:08:48.594Z,99438.00
2023-02-11T07:11:31.124Z,99421.00
2023-02-11T07:14:06.114Z,99430.00
2023-02-11T07:16:33.611Z,99449.00
2023-02-11T07:19:00.762Z,99451.00
2023-02-11T07:21:28.010Z,99454.00
2023-02-11T07:23:55.233Z,99454.00
2023-02-11T07:26:23.928Z,99458.00
2023-02-11T07:28:51.991Z,99448.00
2023-02-11T07:31:29.394Z,99451.00
2023-02-11T07:34:00.336Z,99458.00
2023-02-11T07:36:29.962Z,99436.00
2023-02-11T07:38:56.971Z,99434.00
2023-02-11T07:41:25.339Z,99434.00
2023-02-11T07:43:52.617Z,99438.00
2023-02-11T07:46:26.747Z,99443.00
2023-02-11T07:48:55.039Z,99456.00
2023-02-11T07:51:25.713Z,99449.00
2023-02-11T07:53:53.530Z,99449.00
2023-02-11T07:56:21.723Z,99452.00
2023-02-11T07:58:49.293Z,99446.00
2023-02-11T08:01:25.524Z,99441.00
2023-02-11T08:03:53.133Z,99441.00
2023-02-11T08:06:22.356Z,99451.00
2023-02-11T08:08:50.295Z,99457.00
2023-02-11T08:11:26.252Z,99453.00
2023-02-11T08:13:55.918Z,99462.00
2023-02-11T08:16:42.864Z,99454.00
2023-02-11T08:19:16.519Z,99447.00
2023-02-11T08:21:44.750Z,99435.00
2023-02-11T08:24:11.994Z,99445.00
2023-02-11T08:26:39.630Z,99448.00
2023-02-11T08:29:13.766Z,99435.00
2023-02-11T08:31:44.318Z,99430.00
2023-02-11T08:34:14.345Z,99448.00
2023-02-11T08:36:43.038Z,99442.00
2023-02-11T08:39:20.823Z,99437.00
2023-02-11T08:41:56.541Z,99437.00
2023-02-11T08:44:24.337Z,99431.00
2023-02-11T08:46:52.314Z,99420.00
2023-02-11T08:49:20.426Z,99436.00
2023-02-11T08:51:47.610Z,99426.00
2023-02-11T08:54:15.501Z,99442.00
2023-02-11T08:56:43.168Z,99434.00
2023-02-11T08:59:15.383Z,99438.00
2023-02-11T09:01:44.267Z,99444.00
2023-02-11T09:04:11.510Z,99425.00
2023-02-11T09:06:38.605Z,99416.00
2023-02-11T09:09:05.973Z,99416.00
2023-02-11T09:11:35.730Z,99422.00
2023-02-11T09:14:04.591Z,99439.00
2023-02-11T09:16:36.519Z,99453.00
2023-02-11T09:19:05.665Z,99450.00
2023-02-11T09:21:33.297Z,99437.00
2023-02-11T09:24:00.389Z,99420.00
2023-02-11T09:26:33.942Z,99439.00
2023-02-11T09:29:01.974Z,99444.00
2023-02-11T09:31:32.523Z,99439.00
2023-02-11T09:34:04.484Z,99427.00
2023-02-11T09:36:38.269Z,99423.00
2023-02-11T09:39:11.752Z,99430.00
2023-02-11T09:42:13.624Z,99422.00
2023-02-11T09:44:40.810Z,99416.00
2023-02-11T09:47:28.781Z,99434.00
2023-02-11T09:50:12.785Z,99439.00
2023-02-11T09:53:03.091Z,99435.00
2023-02-11T09:55:42.839Z,99443.00
2023-02-11T09:58:22.327Z,99448.00
2023-02-11T10:01:29.978Z,99449.00
2023-02-11T10:04:05.695Z,99453.00
2023-02-11T10:06:55.902Z,99429.00
2023-02-11T10:10:01.242Z,99438.00
2023-02-11T10:12:55.228Z,99428.00
2023-02-11T10:15:42.335Z,99432.00
2023-02-11T10:18:47.127Z,99419.00
2023-02-11T10:21:24.747Z,99417.00
2023-02-11T10:23:57.565Z,99418.00
2023-02-11T10:26:27.985Z,99420.00
2023-02-11T10:28:59.853Z,99411.00
2023-02-11T10:31:42.569Z,99409.00
2023-02-11T10:34:14.996Z,99405.00
2023-02-11T10:36:44.716Z,99404.00
2023-02-11T10:39:26.075Z,99389.00
2023-02-11T10:42:00.555Z,99379.00
2023-02-11T10:44:35.366Z,99387.00
2023-02-11T10:47:24.609Z,99384.00
2023-02-11T10:49:51.839Z,99373.00
2023-02-11T10:52:27.975Z,99374.00
2023-02-11T10:55:25.035Z,99390.00
2023-02-11T10:58:01.200Z,99389.00
2023-02-11T11:00:38.050Z,99383.00
2023-02-11T11:03:21.770Z,99382.00
2023-02-11T11:06:03.212Z,99383.00
2023-02-11T11:08:49.751Z,99377.00
2023-02-11T11:11:20.854Z,99389.00
2023-02-11T11:13:53.777Z,99391.00
2023-02-11T11:16:28.478Z,99380.00
2023-02-11T11:19:07.710Z,99384.00
2023-02-11T11:21:47.026Z,99376.00
2023-02-11T11:24:44.533Z,99369.00
2023-02-11T11:27:22.024Z,99368.00
2023-02-11T11:29:55.538Z,99355.00
2023-02-11T11:32:32.919Z,99352.00
2023-02-11T11:35:06.073Z,99350.00
2023-02-11T11:37:36.854Z,99343.00
2023-02-11T11:40:09.329Z,99344.00
2023-02-11T11:42:39.178Z,99332.00
2023-02-11T11:45:26.577Z,99329.00
2023-02-11T11:48:00.888Z,99322.00
2023-02-11T11:50:50.688Z,99324.00
2023-02-11T11:53:36.600Z,99322.00
2023-02-11T11:56:14.826Z,99323.00
2023-02-11T11:58:41.930Z,99312.00
2023-02-11T12:01:43.799Z,99310.00
2023-02-11T12:04:59.653Z,99286.00
2023-02-11T12:07:54.384Z,99284.00
2023-02-11T12:10:53.577Z,99274.00
2023-02-11T12:13:38.748Z,99266.00
2023-02-11T12:16:23.674Z,99273.00
2023-02-11T12:19:26.980Z,99280.00
2023-02-11T12:22:26.817Z,99282.00
2023-02-11T12:25:01.143Z,99289.00
2023-02-11T12:27:48.437Z,99274.00
2023-02-11T12:30:46.506Z,99290.00
2023-02-11T12:33:59.865Z,99289.00
2023-02-11T12:37:17.164Z,99273.00
2023-02-11T12:40:14.557Z,99275.00
2023-02-11T12:43:15.169Z,99268.00
2023-02-11T12:46:14.279Z,99273.00
2023-02-11T12:49:01.385Z,99271.00
2023-02-11T12:52:05.721Z,99268.00
2023-02-11T12:54:41.744Z,99260.00
2023-02-11T12:57:23.555Z,99269.00
2023-02-11T13:00:13.670Z,99275.00
2023-02-11T13:02:54.448Z,99269.00
2023-02-11T13:05:33.354Z,99254.00
2023-02-11T13:08:31.501Z,99241.00
2023-02-11T13:11:14.377Z,99236.00
2023-02-11T13:14:04.341Z,99233.00
2023-02-11T13:16:40.125Z,99245.00
2023-02-11T13:19:27.498Z,99244.00
2023-02-11T13:22:00.271Z,99237.00
2023-02-11T13:25:02.890Z,99245.00
2023-02-11T13:27:58.822Z,99235.00
2023-02-11T13:30:39.647Z,99236.00
2023-02-11T13:33:16.870Z,99237.00
2023-02-11T13:36:09.834Z,99228.00
2023-02-11T13:38:37.815Z,99236.00
2023-02-11T13:41:27.630Z,99231.00
2023-02-11T13:44:10.469Z,99239.00
2023-02-11T13:46:58.289Z,99238.00
2023-02-11T13:49:35.681Z,99234.00
2023-02-11T13:52:12.400Z,99242.00
2023-02-11T13:54:40.491Z,99259.00
2023-02-11T13:57:19.577Z,99253.00
2023-02-11T13:59:48.235Z,99268.00
2023-02-11T14:02:44.823Z,99278.00
2023-02-11T14:05:43.642Z,99258.00
2023-02-11T14:08:28.902Z,99261.00
2023-02-11T14:11:00.746Z,99265.00
2023-02-11T14:13:30.009Z,99275.00
2023-02-11T14:16:31.607Z,99263.00
2023-02-11T14:19:03.304Z,99253.00
2023-02-11T14:21:39.489Z,99258.00
2023-02-11T14:24:07.223Z,99255.00
2023-02-11T14:26:50.740Z,99236.00
2023-02-11T14:29:51.855Z,99237.00
2023-02-11T14:32:43.535Z,99250.00
2023-02-11T14:35:52.149Z,99246.00
2023-02-11T14:38:45.644Z,99249.00
2023-02-11T14:41:23.624Z,99245.00
2023-02-11T14:43:59.824Z,99259.00
2023-02-11T14:46:32.991Z,99259.00
2023-02-11T14:49:05.487Z,99254.00
2023-02-11T14:51:36.821Z,99257.00
2023-02-11T14:54:25.352Z,99259.00
2023-02-11T14:57:21.794Z,99258.00
2023-02-11T15:00:14.266Z,99263.00
2023-02-11T15:02:44.629Z,99265.00
2023-02-11T15:05:22.518Z,99261.00
2023-02-11T15:07:56.608Z,99259.00
2023-02-11T15:10:43.886Z,99260.00
2023-02-11T15:13:19.538Z,99260.00
2023-02-11T15:15:48.559Z,99259.00
2023-02-11T15:18:25.485Z,99265.00
2023-02-11T15:20:53.344Z,99279.00
2023-02-11T15:23:27.657Z,99273.00
2023-02-11T15:25:57.928Z,99271.00
2023-02-11T15:28:32.074Z,99276.00
2023-02-11T15:31:17.021Z,99268.00
2023-02-11T15:33:44.141Z,99275.00
2023-02-11T15:36:13.772Z,99269.00
2023-02-11T15:38:41.132Z,99263.00
2023-02-11T15:41:35.808Z,99263.00
2023-02-11T15:44:02.938Z,99265.00
2023-02-11T15:46:39.003Z,99261.00
2023-02-11T15:49:08.621Z,99259.00
2023-02-11T15:51:38.033Z,99265.00
2023-02-11T15:54:29.477Z,99254.00
2023-02-11T15:57:05.597Z,99266.00
2023-02-11T15:59:39.154Z,99272.00
2023-02-11T16:02:30.511Z,99266.00
2023-02-11T16:05:05.011Z,99264.00
2023-02-11T16:08:22.708Z,99273.00
2023-02-11T16:11:09.013Z,99278.00
2023-02-11T16:13:47.418Z,99275.00
2023-02-11T16:16:24.146Z,99278.00
2023-02-11T16:19:04.589Z,99272.00
2023-02-11T16:21:40.084Z,99285.00
2023-02-11T16:24:28.301Z,99291.00
2023-02-11T16:27:18.439Z,99298.00
2023-02-11T16:29:48.528Z,99305.00
2023-02-11T16:32:25.346Z,99322.00
2023-02-11T16:34:55.277Z,99308.00
2023-02-11T16:37:22.256Z,99309.00
2023-02-11T16:39:49.290Z,99312.00
2023-02-11T16:42:16.334Z,99308.00
2023-02-11T16:44:43.301Z,99310.00
2023-02-11T16:47:22.996Z,99317.00
2023-02-11T16:49:50.440Z,99310.00
2023-02-11T16:52:19.485Z,99321.00
2023-02-11T16:54:46.606Z,99322.00
2023-02-11T16:57:23.607Z,99326.00
2023-02-11T16:59:51.163Z,99330.00
2023-02-11T17:02:31.765Z,99334.00
2023-02-11T17:05:02.242Z,99331.00
2023-02-11T17:07:29.968Z,99329.00
2023-02-11T17:09:57.560Z,99343.00
2023-02-11T17:12:27.692Z,99339.00
2023-02-11T17:14:54.926Z,99333.00
2023-02-11T17:17:25.035Z,99329.00
2023-02-11T17:19:52.079Z,99328.00
2023-02-11T17:22:19.353Z,99326.00
2023-02-11T17:24:46.399Z,99328.00
2023-02-11T17:27:13.792Z,99333.00
2023-02-11T17:29:41.145Z,99321.00
2023-02-11T17:32:08.265Z,99326.00
2023-02-11T17:34:35.362Z,99328.00
2023-02-11T17:37:08.950Z,99332.00
2023-02-11T17:39:37.943Z,99338.00
2023-02-11T17:42:06.232Z,99333.00
2023-02-11T17:44:34.246Z,99347.00
2023-02-11T17:47:01.321Z,99349.00
2023-02-11T17:49:28.517Z,99343.00
2023-02-11T17:51:55.600Z,99346.00
2023-02-11T17:54:22.794Z,99344.00
2023-02-11T17:56:50.876Z,99344.00
2023-02-11T17:59:18.079Z,99335.00
2023-02-11T18:01:45.220Z,99337.00
2023-02-11T18:04:18.875Z,99331.00
2023-02-11T18:06:46.993Z,99339.00
2023-02-11T18:09:14.275Z,99344.00
2023-02-11T18:11:42.298Z,99348.00
2023-02-11T18:14:10.675Z,99342.00
2023-02-11T18:16:39.836Z,99332.00
2023-02-11T18:19:07.762Z,99336.00
2023-02-11T18:21:35.427Z,99340.00
2023-02-11T18:24:06.552Z,99347.00
2023-02-11T18:26:34.753Z,99348.00
2023-02-11T18:29:03.882Z,99341.00
2023-02-11T18:31:31.562Z,99352.00
2023-02-11T18:33:58.630Z,99356.00
2023-02-11T18:36:25.775Z,99358.00
2023-02-11T18:38:54.343Z,99359.00
2023-02-11T18:41:21.801Z,99362.00
2023-02-11T18:43:48.993Z,99362.00
2023-02-11T18:46:16.705Z,99377.00
2023-02-11T18:48:45.073Z,99376.00
2023-02-11T18:51:20.677Z,99364.00
2023-02-11T18:53:47.765Z,99373.00
2023-02-11T18:56:19.027Z,99366.00
2023-02-11T18:58:48.198Z,99371.00
2023-02-11T19:01:26.774Z,99375.00
2023-02-11T19:03:56.437Z,99377.00
2023-02-11T19:06:27.533Z,99377.00
2023-02-11T19:08:59.566Z,99384.00
2023-02-11T19:11:47.005Z,99383.00
2023-02-11T19:14:36.292Z,99383.00
2023-02-11T19:17:08.423Z,99385.00
2023-02-11T19:19:36.738Z,99382.00
2023-02-11T19:22:08.499Z,99378.00
2023-02-11T19:24:37.656Z,99376.00
2023-02-11T19:27:05.863Z,99381.00
2023-02-11T19:29:35.367Z,99383.00
2023-02-11T19:32:05.930Z,99382.00
2023-02-11T19:34:33.500Z,99381.00
2023-02-11T19:37:01.741Z,99393.00
2023-02-11T19:39:28.848Z,99399.00
2023-02-11T19:41:55.915Z,99405.00
2023-02-11T19:44:23.015Z,99401.00
2023-02-11T19:46:52.887Z,99391.00
2023-02-11T19:49:23.378Z,99408.00
2023-02-11T19:51:51.890Z,99403.00
2023-02-11T19:54:20.349Z,99396.00
2023-02-11T19:56:48.773Z,99392.00
2023-02-11T19:59:16.341Z,99392.00
2023-02-11T20:01:44.514Z,99388.00
2023-02-11T20:04:13.261Z,99393.00
2023-02-11T20:06:43.826Z,99397.00
2023-02-11T20:09:14.703Z,99397.00
2023-02-11T20:11:42.141Z,99397.00
2023-02-11T20:14:11.535Z,99391.00
2023-02-11T20:16:47.986Z,99401.00
2023-02-11T20:19:22.099Z,99393.00
2023-02-11T20:21:53.129Z,99402.00
2023-02-11T20:24:20.883Z,99390.00
2023-02-11T20:26:48.914Z,99396.00
2023-02-11T20:29:19.156Z,99401.00
2023-02-11T20:31:46.632Z,99399.00
2023-02-11T20:34:13.831Z,99389.00
2023-02-11T20:36:41.190Z,99391.00
2023-02-11T20:39:08.899Z,99400.00
2023-02-11T20:41:39.924Z,99408.00
2023-02-11T20:44:08.769Z,99401.00
2023-02-11T20:46:40.361Z,99403.00
2023-02-11T20:49:08.858Z,99402.00
2023-02-11T20:51:36.962Z,99391.00
2023-02-11T20:54:06.145Z,99384.00
2023-02-11T20:56:36.783Z,99394.00
2023-02-11T20:59:05.131Z,99402.00
2023-02-11T21:01:42.501Z,99397.00
2023-02-11T21:04:30.574Z,99399.00
2023-02-11T21:07:01.272Z,99397.00
2023-02-11T21:09:32.212Z,99393.00
2023-02-11T21:12:00.490Z,99399.00
2023-02-11T21:14:29.075Z,99398.00
2023-02-11T21:16:56.418Z,99394.00
2023-02-11T21:19:23.815Z,99397.00
2023-02-11T21:21:51.247Z,99394.00
2023-02-11T21:24:18.324Z,99401.00
2023-02-11T21:26:45.616Z,99386.00
2023-02-11T21:29:12.819Z,99401.00
2023-02-11T21:31:40.396Z,99396.00
2023-02-11T21:34:08.296Z,99398.00
2023-02-11T21:36:35.574Z,99390.00
2023-02-11T21:39:04.005Z,99393.00
2023-02-11T21:41:31.339Z,99390.00
2023-02-11T21:43:58.574Z,99406.00
2023-02-11T21:46:26.372Z,99406.00
2023-02-11T21:48:53.612Z,99413.00
2023-02-11T21:51:26.146Z,99410.00
2023-02-11T21:53:59.628Z,99418.00
2023-02-11T21:56:28.262Z,99419.00
2023-02-11T21:58:57.712Z,99411.00
2023-02-11T22:01:28.920Z,99418.00
2023-02-11T22:03:56.237Z,99415.00
2023-02-11T22:06:27.111Z,99415.00
2023-02-11T22:08:55.248Z,99413.00
2023-02-11T22:11:23.484Z,99429.00
2023-02-11T22:13:55.229Z,99434.00
2023-02-11T22:16:22.972Z,99423.00
2023-02-11T22:18:50.342Z,99428.00
2023-02-11T22:21:21.171Z,99427.00
2023-02-11T22:23:49.310Z,99418.00
2023-02-11T22:26:21.028Z,99420.00
2023-02-11T22:28:48.514Z,99426.00
2023-02-11T22:31:24.243Z,99433.00
2023-02-11T22:33:51.907Z,99435.00
2023-02-11T22:36:28.523Z,99434.00
2023-02-11T22:38:56.492Z,99432.00
2023-02-11T22:41:23.824Z,99439.00
2023-02-11T22:43:50.951Z,99437.00
2023-02-11T22:46:20.111Z,99443.00
2023-02-11T22:48:48.019Z,99445.00
2023-02-11T22:51:22.327Z,99442.00
2023-02-11T22:53:56.520Z,99440.00
2023-02-11T22:56:25.015Z,99450.00
2023-02-11T22:58:53.741Z,99458.00
2023-02-11T23:01:20.934Z,99457.00
2023-02-11T23:03:48.301Z,99455.00
2023-02-11T23:06:15.806Z,99448.00
2023-02-11T23:08:43.441Z,99452.00
2023-02-11T23:11:18.089Z,99445.00
2023-02-11T23:13:46.862Z,99448.00
2023-02-11T23:16:21.320Z,99449.00
2023-02-11T23:18:49.684Z,99453.00
2023-02-11T23:21:24.964Z,99443.00
2023-02-11T23:24:02.148Z,99445.00
2023-02-11T23:26:30.336Z,99448.00
2023-02-11T23:28:59.481Z,99461.00
2023-02-11T23:31:38.041Z,99461.00
2023-02-11T23:34:06.895Z,99460.00
2023-02-11T23:36:34.742Z,99468.00
2023-02-11T23:39:02.695Z,99469.00
2023-02-11T23:41:29.852Z,99468.00
2023-02-11T23:43:58.133Z,99469.00
2023-02-11T23:46:27.144Z,99465.00
2023-02-11T23:48:54.483Z,99469.00
2023-02-11T23:51:22.274Z,99459.00
2023-02-11T23:53:50.433Z,99467.00
2023-02-11T23:56:21.181Z,99465.00
2023-02-11T23:58:50.252Z,99461.00
